Overview Statistics Trail Chart Weather Telemetry Raw packets
 

This is the latest recevied weather packets stored in our database for station/object LKCS. If no packets are shown the sender has not sent any weather packets the latest 10 day(s).

<< 11 12 13 14 15 16 17 >>
Time Temp. Humidity Pressure Rain* Wind** Luminosity Snow
1788260600 22.78° C 46% 1021 hPa - - - -
1788258785 22.22° C 46% 1021 hPa - - - -
1788256993 22.22° C 46% 1021 hPa - - - -
1788255164 22.22° C 40% 1021 hPa - - - -
1788253368 20° C 49% 1021 hPa - - - -
1788251585 21.11° C 52% 1021 hPa - - - -
1788249761 20° C 56% 1021 hPa - - - -
1788247986 20° C 56% 1021 hPa - - - -
1788246175 18.89° C 59% 1021 hPa - - - -
1788244385 17.78° C 67% 1021 hPa - - - -
1788242594 17.22° C 72% 1021 hPa - - - -
1788240784 16.11° C 77% 1021 hPa - - - -
1788238992 13.89° C 82% 1020 hPa - - - -
1788237151 13.89° C 76% 1020 hPa - - - -
1788235387 13.89° C 76% 1020 hPa - - - -
1788233551 13.89° C 76% 1020 hPa - - - -
1788231772 13.89° C 76% 1020 hPa - - - -
1788229950 12.78° C 82% 1020 hPa - - - -
1788228162 15° C 72% 1020 hPa - - - -
1788226385 13.89° C 76% 1020 hPa - - - -
1788224560 16.11° C 72% 1020 hPa - - - -
1788222785 17.22° C 59% 1020 hPa - - - -
1788220954 16.11° C 67% 1020 hPa - - - -
1788219184 17.78° C 63% 1020 hPa - - - -
1788217387 17.22° C 72% 1020 hPa - - - -

* Rain since midnight (hover to see other rain measurements)
** Current wind speed in m/s (hover to see current wind gust speed)